Terminal Aerodrome Forecast
Issued by NWS Central Illinois

Current Version | Previous Version | Text Only | Print | Product List | Glossary On
Versions: 1 2 3 4 5 6 7 8 9 10 11 12 13 14 15 16 17 18 19
918
FTUS43 KILX 291442 AAA
TAFSPI
TAF AMD
KSPI 291442Z 2915/3012 23012G22KT P6SM SCT050 BKN150
     FM291700 22014G24KT P6SM SCT060 BKN150
     FM300100 19011KT P6SM VCTS SCT050CB BKN090
     FM300400 19010KT P6SM SHRA BKN090
     FM300900 20008KT P6SM SHRA OVC045=

USA.gov is the U.S. government's official web portal to all federal, state and local government web resources and services.